createdAt,value
2022-10-26T00:01:14.341Z,92.20
2022-10-26T00:03:43.894Z,92.20
2022-10-26T00:06:19.846Z,92.20
2022-10-26T00:08:49.587Z,92.20
2022-10-26T00:11:17.761Z,92.20
2022-10-26T00:13:46.749Z,92.20
2022-10-26T00:16:20.292Z,92.20
2022-10-26T00:18:48.129Z,92.20
2022-10-26T00:21:15.747Z,92.20
2022-10-26T00:23:43.053Z,92.20
2022-10-26T00:26:10.970Z,92.20
2022-10-26T00:28:38.529Z,92.20
2022-10-26T00:31:08.889Z,92.20
2022-10-26T00:33:36.848Z,92.20
2022-10-26T00:36:04.635Z,92.20
2022-10-26T00:38:32.054Z,92.20
2022-10-26T00:40:59.368Z,92.20
2022-10-26T00:43:29.785Z,92.20
2022-10-26T00:45:59.222Z,92.20
2022-10-26T00:48:42.366Z,92.20
2022-10-26T00:51:32.888Z,92.20
2022-10-26T00:54:07.340Z,92.20
2022-10-26T00:56:37.897Z,92.20
2022-10-26T00:59:08.758Z,92.20
2022-10-26T01:01:40.469Z,92.20
2022-10-26T01:04:07.898Z,92.20
2022-10-26T01:06:37.366Z,92.20
2022-10-26T01:09:05.070Z,92.20
2022-10-26T01:11:32.320Z,92.20
2022-10-26T01:14:02.212Z,92.20
2022-10-26T01:16:44.625Z,92.20
2022-10-26T01:19:24.131Z,92.20
2022-10-26T01:22:07.127Z,92.20
2022-10-26T01:25:04.962Z,92.20
2022-10-26T01:27:36.648Z,92.20
2022-10-26T01:30:19.061Z,92.20
2022-10-26T01:33:16.930Z,92.20
2022-10-26T01:36:07.498Z,92.20
2022-10-26T01:38:56.460Z,92.20
2022-10-26T01:41:44.227Z,92.20
2022-10-26T01:44:30.874Z,92.20
2022-10-26T01:47:00.112Z,92.20
2022-10-26T01:49:30.076Z,92.20
2022-10-26T01:51:57.487Z,92.20
2022-10-26T01:54:25.087Z,92.20
2022-10-26T01:56:56.454Z,92.20
2022-10-26T01:59:36.331Z,92.20
2022-10-26T02:02:41.054Z,92.20
2022-10-26T02:05:32.631Z,92.20
2022-10-26T02:08:31.662Z,92.20
2022-10-26T02:11:27.008Z,92.20
2022-10-26T02:13:57.020Z,92.20
2022-10-26T02:16:37.385Z,92.20
2022-10-26T02:19:28.156Z,92.20
2022-10-26T02:22:05.657Z,92.20
2022-10-26T02:24:37.209Z,92.20
2022-10-26T02:27:08.735Z,92.20
2022-10-26T02:29:37.759Z,92.20
2022-10-26T02:32:08.860Z,92.20
2022-10-26T02:34:38.491Z,92.20
2022-10-26T02:37:07.638Z,92.20
2022-10-26T02:39:37.258Z,92.20
2022-10-26T02:42:07.505Z,92.20
2022-10-26T02:44:46.825Z,92.20
2022-10-26T02:47:14.408Z,92.20
2022-10-26T02:49:42.276Z,92.20
2022-10-26T02:52:35.989Z,92.20
2022-10-26T02:55:19.403Z,92.20
2022-10-26T02:57:51.722Z,92.20
2022-10-26T03:00:19.814Z,92.20
2022-10-26T03:03:03.767Z,92.20
2022-10-26T03:05:33.058Z,92.20
2022-10-26T03:08:00.967Z,92.20
2022-10-26T03:10:28.731Z,92.20
2022-10-26T03:12:56.364Z,92.20
2022-10-26T03:15:23.811Z,92.20
2022-10-26T03:17:51.342Z,92.20
2022-10-26T03:20:18.817Z,92.20
2022-10-26T03:22:48.536Z,92.20
2022-10-26T03:25:16.006Z,92.20
2022-10-26T03:27:43.901Z,92.20
2022-10-26T03:30:12.197Z,92.20
2022-10-26T03:32:39.942Z,92.20
2022-10-26T03:35:07.549Z,92.20
2022-10-26T03:37:34.939Z,92.20
2022-10-26T03:40:02.291Z,92.20
2022-10-26T03:42:33.628Z,92.20
2022-10-26T03:45:00.853Z,92.20
2022-10-26T03:47:28.394Z,92.20
2022-10-26T03:49:55.702Z,92.20
2022-10-26T03:52:24.491Z,92.20
2022-10-26T03:54:52.850Z,92.20
2022-10-26T03:57:20.343Z,92.20
2022-10-26T03:59:47.955Z,92.20
2022-10-26T04:02:15.616Z,92.20
2022-10-26T04:04:42.996Z,92.20
2022-10-26T04:07:10.258Z,92.20
2022-10-26T04:09:37.819Z,92.20
2022-10-26T04:12:05.440Z,92.20
2022-10-26T04:14:32.796Z,92.20
2022-10-26T04:17:00.031Z,92.20
2022-10-26T04:19:27.603Z,92.20
2022-10-26T04:21:54.884Z,92.20
2022-10-26T04:24:25.027Z,92.20
2022-10-26T04:26:52.343Z,92.20
2022-10-26T04:29:19.687Z,92.20
2022-10-26T04:31:46.945Z,92.20
2022-10-26T04:34:14.304Z,92.20
2022-10-26T04:36:41.565Z,92.20
2022-10-26T04:39:08.846Z,92.20
2022-10-26T04:41:36.480Z,92.20
2022-10-26T04:44:03.726Z,92.20
2022-10-26T04:46:31.088Z,92.20
2022-10-26T04:48:58.438Z,92.20
2022-10-26T04:51:27.121Z,92.20
2022-10-26T04:54:00.327Z,92.20
2022-10-26T04:56:27.793Z,92.20
2022-10-26T04:58:55.621Z,92.20
2022-10-26T05:01:23.125Z,92.20
2022-10-26T05:03:53.522Z,92.20
2022-10-26T05:06:22.054Z,92.20
2022-10-26T05:08:49.418Z,92.20
2022-10-26T05:11:16.798Z,92.20
2022-10-26T05:13:44.151Z,92.20
2022-10-26T05:16:11.408Z,92.20
2022-10-26T05:18:38.776Z,92.20
2022-10-26T05:21:06.426Z,92.20
2022-10-26T05:23:33.648Z,92.20
2022-10-26T05:26:00.921Z,92.20
2022-10-26T05:28:28.510Z,92.20
2022-10-26T05:30:58.834Z,92.20
2022-10-26T05:33:26.234Z,92.20
2022-10-26T05:35:57.315Z,92.20
2022-10-26T05:38:24.631Z,92.20
2022-10-26T05:40:53.636Z,92.20
2022-10-26T05:43:22.720Z,92.20
2022-10-26T05:45:53.964Z,92.20
2022-10-26T05:48:22.052Z,92.20
2022-10-26T05:50:49.498Z,92.20
2022-10-26T05:53:16.758Z,92.20
2022-10-26T05:55:44.539Z,92.20
2022-10-26T05:58:15.822Z,92.20
2022-10-26T06:01:27.629Z,92.20
2022-10-26T06:04:10.837Z,92.20
2022-10-26T06:06:44.570Z,92.20
2022-10-26T06:09:13.192Z,92.20
2022-10-26T06:11:40.753Z,92.20
2022-10-26T06:14:09.132Z,92.20
2022-10-26T06:16:46.817Z,92.20
2022-10-26T06:19:19.975Z,92.20
2022-10-26T06:22:30.974Z,92.20
2022-10-26T06:25:36.435Z,92.20
2022-10-26T06:28:26.288Z,92.20
2022-10-26T06:30:53.673Z,92.20
2022-10-26T06:33:29.863Z,92.20
2022-10-26T06:36:30.560Z,92.20
2022-10-26T06:39:10.637Z,92.20
2022-10-26T06:41:38.383Z,92.20
2022-10-26T06:44:06.581Z,92.20
2022-10-26T06:46:50.714Z,92.20
2022-10-26T06:49:28.078Z,92.20
2022-10-26T06:51:58.339Z,92.20
2022-10-26T06:54:28.403Z,92.20
2022-10-26T06:56:56.402Z,92.20
2022-10-26T06:59:39.875Z,92.20
2022-10-26T07:02:07.400Z,92.20
2022-10-26T07:04:34.861Z,92.20
2022-10-26T07:07:02.587Z,92.20
2022-10-26T07:09:30.036Z,92.20
2022-10-26T07:11:57.364Z,92.20
2022-10-26T07:14:24.811Z,92.20
2022-10-26T07:16:52.154Z,92.20
2022-10-26T07:19:19.429Z,92.20
2022-10-26T07:21:46.837Z,92.20
2022-10-26T07:24:14.192Z,92.20
2022-10-26T07:26:41.443Z,92.20
2022-10-26T07:29:08.802Z,92.20
2022-10-26T07:31:36.326Z,92.20
2022-10-26T07:34:03.753Z,92.20
2022-10-26T07:36:31.142Z,92.20
2022-10-26T07:38:58.480Z,92.20
2022-10-26T07:41:25.760Z,92.20
2022-10-26T07:43:53.331Z,92.20
2022-10-26T07:46:20.658Z,92.20
2022-10-26T07:48:47.986Z,92.20
2022-10-26T07:51:15.559Z,92.20
2022-10-26T07:53:43.182Z,92.20
2022-10-26T07:56:11.540Z,92.20
2022-10-26T07:58:39.002Z,92.20
2022-10-26T08:01:16.842Z,92.20
2022-10-26T08:03:44.159Z,92.20
2022-10-26T08:06:11.555Z,92.20
2022-10-26T08:08:42.335Z,92.20
2022-10-26T08:11:11.013Z,92.20
2022-10-26T08:13:38.433Z,92.20
2022-10-26T08:16:06.674Z,92.20
2022-10-26T08:18:34.217Z,92.20
2022-10-26T08:21:11.711Z,92.20
2022-10-26T08:23:41.396Z,92.20
2022-10-26T08:26:11.834Z,92.20
2022-10-26T08:28:40.101Z,92.20
2022-10-26T08:31:08.149Z,92.20
2022-10-26T08:33:35.705Z,92.20
2022-10-26T08:36:06.350Z,92.20
2022-10-26T08:38:36.530Z,92.20
2022-10-26T08:41:11.952Z,92.20
2022-10-26T08:43:45.825Z,91.70
2022-10-26T08:46:22.193Z,90.40
2022-10-26T08:48:59.351Z,90.00
2022-10-26T08:51:35.770Z,89.70
2022-10-26T08:54:14.446Z,89.10
2022-10-26T08:56:50.887Z,87.10
2022-10-26T08:59:43.063Z,87.10
2022-10-26T09:02:14.597Z,87.10
2022-10-26T09:04:42.390Z,84.90
2022-10-26T09:07:40.567Z,82.50
2022-10-26T09:10:16.577Z,80.50
2022-10-26T09:12:54.946Z,80.20
2022-10-26T09:15:40.787Z,78.50
2022-10-26T09:18:34.507Z,77.50
2022-10-26T09:21:07.404Z,77.80
2022-10-26T09:23:59.776Z,77.20
2022-10-26T09:26:36.503Z,77.90
2022-10-26T09:29:07.712Z,77.50
2022-10-26T09:31:43.375Z,76.00
2022-10-26T09:34:45.674Z,76.10
2022-10-26T09:37:21.384Z,76.60
2022-10-26T09:39:58.844Z,74.40
2022-10-26T09:42:40.799Z,73.30
2022-10-26T09:45:24.815Z,73.50
2022-10-26T09:47:55.292Z,73.30
2022-10-26T09:50:40.649Z,72.40
2022-10-26T09:53:08.196Z,73.10
2022-10-26T09:55:41.955Z,72.70
2022-10-26T09:58:17.537Z,72.70
2022-10-26T10:00:46.408Z,70.70
2022-10-26T10:03:29.095Z,72.00
2022-10-26T10:06:19.886Z,71.90
2022-10-26T10:09:21.479Z,70.00
2022-10-26T10:11:57.494Z,70.30
2022-10-26T10:14:30.150Z,70.20
2022-10-26T10:17:21.904Z,69.90
2022-10-26T10:19:49.748Z,68.60
2022-10-26T10:22:19.945Z,67.90
2022-10-26T10:25:02.042Z,65.90
2022-10-26T10:27:31.053Z,65.60
2022-10-26T10:30:13.965Z,65.20
2022-10-26T10:32:41.668Z,63.50
2022-10-26T10:35:25.750Z,63.60
2022-10-26T10:37:53.628Z,63.20
2022-10-26T10:40:25.491Z,63.30
2022-10-26T10:43:03.310Z,64.80
2022-10-26T10:45:32.044Z,64.20
2022-10-26T10:48:00.243Z,62.90
2022-10-26T10:50:28.905Z,62.90
2022-10-26T10:53:39.897Z,62.70
2022-10-26T10:56:37.927Z,64.80
2022-10-26T10:59:41.079Z,68.50
2022-10-26T11:02:34.919Z,69.70
2022-10-26T11:05:30.244Z,71.40
2022-10-26T11:08:41.404Z,73.20
2022-10-26T11:11:16.616Z,72.40
2022-10-26T11:13:49.931Z,75.20
2022-10-26T11:16:30.131Z,74.20
2022-10-26T11:19:28.894Z,74.20
2022-10-26T11:21:57.256Z,75.10
2022-10-26T11:24:47.624Z,74.20
2022-10-26T11:27:26.675Z,76.20
2022-10-26T11:30:14.037Z,77.00
2022-10-26T11:32:53.652Z,75.10
2022-10-26T11:35:45.396Z,75.20
2022-10-26T11:38:38.814Z,74.90
2022-10-26T11:41:31.857Z,75.90
2022-10-26T11:44:23.026Z,73.80
2022-10-26T11:47:03.200Z,73.50
2022-10-26T11:49:59.831Z,72.70
2022-10-26T11:52:34.787Z,71.60
2022-10-26T11:55:05.078Z,69.30
2022-10-26T11:57:37.785Z,68.00
2022-10-26T12:00:09.328Z,68.50
2022-10-26T12:05:43.442Z,67.50
2022-10-26T12:08:24.748Z,68.90
2022-10-26T12:11:19.220Z,71.40
2022-10-26T12:13:59.858Z,73.20
2022-10-26T12:16:57.838Z,71.50
2022-10-26T12:19:47.062Z,72.20
2022-10-26T12:22:18.109Z,70.70
2022-10-26T12:25:13.908Z,68.60
2022-10-26T12:27:42.322Z,68.40
2022-10-26T12:30:18.752Z,66.70
2022-10-26T12:32:46.141Z,64.20
2022-10-26T12:35:32.360Z,64.10
2022-10-26T12:38:01.286Z,64.10
2022-10-26T12:40:32.697Z,63.80
2022-10-26T12:43:15.500Z,61.60
2022-10-26T12:45:44.675Z,59.80
2022-10-26T12:48:46.893Z,61.90
2022-10-26T12:51:23.054Z,62.40
2022-10-26T12:54:08.457Z,61.20
2022-10-26T12:56:50.935Z,59.80
2022-10-26T12:59:44.243Z,60.40
2022-10-26T13:02:29.338Z,61.10
2022-10-26T13:05:40.323Z,60.70
2022-10-26T13:08:10.862Z,60.90
2022-10-26T13:10:44.998Z,62.60
2022-10-26T13:13:23.960Z,64.00
2022-10-26T13:15:58.623Z,66.50
2022-10-26T13:18:26.338Z,68.10
2022-10-26T13:21:00.475Z,69.50
2022-10-26T13:23:30.723Z,68.30
2022-10-26T13:26:13.257Z,65.30
2022-10-26T13:28:41.228Z,64.90
2022-10-26T13:31:32.890Z,65.40
2022-10-26T13:34:19.765Z,63.70
2022-10-26T13:37:17.555Z,62.60
2022-10-26T13:39:48.152Z,63.70
2022-10-26T13:42:22.062Z,65.20
2022-10-26T13:45:01.578Z,67.10
2022-10-26T13:47:56.607Z,67.90
2022-10-26T13:50:30.066Z,67.80
2022-10-26T13:53:05.442Z,65.80
2022-10-26T13:56:01.379Z,64.90
2022-10-26T13:58:37.300Z,63.50
2022-10-26T14:01:17.176Z,63.80
2022-10-26T14:03:45.236Z,63.50
2022-10-26T14:06:22.889Z,63.60
2022-10-26T14:08:52.934Z,62.90
2022-10-26T14:11:30.988Z,63.90
2022-10-26T14:13:58.384Z,66.10
2022-10-26T14:16:30.435Z,67.60
2022-10-26T14:18:58.330Z,68.60
2022-10-26T14:21:25.887Z,69.40
2022-10-26T14:23:59.456Z,69.30
2022-10-26T14:26:30.237Z,69.30
2022-10-26T14:29:00.216Z,69.80
2022-10-26T14:31:30.694Z,68.60
2022-10-26T14:34:00.189Z,68.50
2022-10-26T14:36:38.986Z,69.50
2022-10-26T14:39:36.593Z,70.80
2022-10-26T14:42:23.987Z,72.50
2022-10-26T14:44:51.435Z,73.90
2022-10-26T14:47:28.306Z,74.90
2022-10-26T14:49:57.068Z,75.70
2022-10-26T14:52:33.731Z,76.60
2022-10-26T14:55:12.794Z,77.80
2022-10-26T14:57:42.415Z,77.80
2022-10-26T15:00:18.559Z,78.70
2022-10-26T15:02:48.714Z,79.80
2022-10-26T15:05:25.279Z,80.40
2022-10-26T15:07:54.153Z,80.70
2022-10-26T15:10:36.796Z,81.00
2022-10-26T15:13:25.715Z,81.20
2022-10-26T15:15:58.353Z,82.20
2022-10-26T15:18:29.010Z,82.70
2022-10-26T15:20:57.735Z,83.10
2022-10-26T15:23:27.649Z,83.50
2022-10-26T15:26:03.069Z,84.00
2022-10-26T15:28:39.277Z,84.70
2022-10-26T15:31:11.420Z,85.10
2022-10-26T15:33:41.731Z,86.20
2022-10-26T15:36:09.423Z,86.80
2022-10-26T15:38:36.780Z,87.10
2022-10-26T15:41:05.342Z,87.30
2022-10-26T15:43:32.713Z,87.90
2022-10-26T15:46:00.039Z,88.40
2022-10-26T15:48:29.471Z,88.40
2022-10-26T15:50:57.596Z,89.20
2022-10-26T15:53:27.843Z,89.40
2022-10-26T15:55:58.147Z,89.70
2022-10-26T15:58:25.668Z,90.20
2022-10-26T16:00:52.938Z,90.70
2022-10-26T16:03:23.158Z,90.90
2022-10-26T16:06:02.497Z,91.60
2022-10-26T16:08:31.723Z,92.00
2022-10-26T16:10:59.354Z,92.10
2022-10-26T16:13:27.898Z,92.20
2022-10-26T16:15:55.147Z,92.20
2022-10-26T16:18:22.375Z,92.20
2022-10-26T16:20:49.713Z,92.20
2022-10-26T16:23:17.074Z,92.20
2022-10-26T16:25:46.692Z,92.20
2022-10-26T16:28:17.362Z,92.20
2022-10-26T16:30:44.859Z,92.20
2022-10-26T16:33:13.185Z,92.20
2022-10-26T16:35:41.312Z,92.20
2022-10-26T16:38:09.068Z,92.20
2022-10-26T16:40:36.674Z,92.20
2022-10-26T16:43:04.108Z,92.20
2022-10-26T16:45:31.797Z,92.20
2022-10-26T16:48:06.429Z,92.20
2022-10-26T16:50:37.018Z,92.20
2022-10-26T16:53:07.640Z,92.20
2022-10-26T16:55:37.644Z,92.20
2022-10-26T16:58:06.141Z,92.20
2022-10-26T17:00:37.028Z,92.20
2022-10-26T17:03:04.991Z,92.20
2022-10-26T17:05:32.308Z,92.20
2022-10-26T17:07:59.876Z,92.20
2022-10-26T17:10:28.226Z,92.20
2022-10-26T17:12:57.277Z,92.20
2022-10-26T17:15:28.943Z,92.20
2022-10-26T17:17:56.498Z,92.20
2022-10-26T17:20:23.791Z,92.20
2022-10-26T17:22:51.436Z,92.20
2022-10-26T17:25:19.078Z,92.20
2022-10-26T17:27:46.681Z,92.20
2022-10-26T17:30:15.151Z,92.20
2022-10-26T17:32:42.535Z,92.20
2022-10-26T17:35:09.975Z,92.20
2022-10-26T17:37:37.962Z,92.20
2022-10-26T17:40:05.592Z,92.20
2022-10-26T17:42:33.089Z,92.20
2022-10-26T17:45:00.356Z,92.20
2022-10-26T17:47:27.583Z,92.20
2022-10-26T17:49:55.051Z,92.20
2022-10-26T17:52:24.940Z,92.20
2022-10-26T17:54:52.258Z,92.20
2022-10-26T17:57:19.601Z,92.20
2022-10-26T17:59:47.982Z,92.20
2022-10-26T18:02:15.706Z,92.20
2022-10-26T18:04:46.226Z,92.20
2022-10-26T18:07:13.921Z,92.20
2022-10-26T18:09:41.190Z,92.20
2022-10-26T18:12:08.552Z,92.20
2022-10-26T18:14:35.851Z,92.20
2022-10-26T18:17:03.109Z,92.20
2022-10-26T18:19:30.900Z,92.20
2022-10-26T18:21:59.190Z,92.20
2022-10-26T18:24:26.757Z,92.20
2022-10-26T18:26:54.174Z,92.20
2022-10-26T18:29:21.966Z,92.20
2022-10-26T18:31:49.711Z,92.20
2022-10-26T18:34:17.254Z,92.20
2022-10-26T18:36:44.490Z,92.20
2022-10-26T18:39:11.755Z,92.20
2022-10-26T18:41:39.205Z,92.20
2022-10-26T18:44:06.714Z,92.20
2022-10-26T18:46:40.618Z,92.20
2022-10-26T18:49:10.015Z,92.20
2022-10-26T18:51:37.888Z,92.20
2022-10-26T18:54:05.461Z,92.20
2022-10-26T18:56:32.892Z,92.20
2022-10-26T18:59:01.036Z,92.20
2022-10-26T19:01:37.093Z,92.20
2022-10-26T19:04:06.844Z,92.20
2022-10-26T19:06:37.635Z,92.20
2022-10-26T19:09:06.851Z,92.20
2022-10-26T19:11:34.433Z,92.20
2022-10-26T19:14:01.759Z,92.20
2022-10-26T19:16:45.314Z,92.20
2022-10-26T19:19:14.280Z,92.20
2022-10-26T19:21:41.778Z,92.20
2022-10-26T19:24:13.727Z,92.20
2022-10-26T19:26:43.557Z,92.20
2022-10-26T19:29:17.092Z,92.20
2022-10-26T19:31:46.037Z,92.20
2022-10-26T19:34:15.135Z,92.20
2022-10-26T19:36:45.430Z,92.20
2022-10-26T19:39:14.661Z,92.20
2022-10-26T19:41:42.440Z,92.20
2022-10-26T19:44:11.667Z,92.20
2022-10-26T19:46:39.970Z,92.20
2022-10-26T19:49:09.664Z,92.20
2022-10-26T19:51:37.719Z,92.20
2022-10-26T19:54:07.345Z,92.20
2022-10-26T19:56:36.835Z,92.20
2022-10-26T19:59:05.763Z,92.20
2022-10-26T20:01:33.273Z,92.20
2022-10-26T20:04:02.875Z,92.20
2022-10-26T20:06:31.520Z,92.20
2022-10-26T20:08:58.871Z,92.20
2022-10-26T20:11:26.418Z,92.20
2022-10-26T20:13:55.727Z,92.20
2022-10-26T20:16:23.080Z,92.20
2022-10-26T20:18:50.495Z,92.20
2022-10-26T20:21:18.289Z,92.20
2022-10-26T20:23:46.174Z,92.20
2022-10-26T20:26:19.206Z,92.20
2022-10-26T20:28:53.181Z,92.20
2022-10-26T20:31:20.495Z,92.20
2022-10-26T20:33:54.126Z,92.20
2022-10-26T20:36:21.964Z,92.20
2022-10-26T20:38:49.835Z,92.20
2022-10-26T20:41:17.591Z,92.20
2022-10-26T20:43:45.269Z,92.20
2022-10-26T20:46:23.628Z,92.20
2022-10-26T20:48:51.934Z,92.20
2022-10-26T20:51:37.783Z,92.20
2022-10-26T20:54:15.006Z,92.20
2022-10-26T20:56:43.437Z,92.20
2022-10-26T20:59:31.634Z,92.20
2022-10-26T21:01:58.913Z,92.20
2022-10-26T21:04:26.263Z,92.20
2022-10-26T21:06:53.749Z,92.20
2022-10-26T21:09:23.283Z,92.20
2022-10-26T21:11:50.985Z,92.20
2022-10-26T21:14:18.280Z,92.20
2022-10-26T21:16:45.681Z,92.20
2022-10-26T21:19:13.178Z,92.20
2022-10-26T21:21:40.680Z,92.20
2022-10-26T21:24:08.588Z,92.20
2022-10-26T21:26:36.152Z,92.20
2022-10-26T21:29:04.270Z,92.20
2022-10-26T21:31:31.476Z,92.20
2022-10-26T21:33:58.783Z,92.20
2022-10-26T21:36:26.158Z,92.20
2022-10-26T21:38:53.493Z,92.20
2022-10-26T21:41:22.025Z,92.20
2022-10-26T21:43:59.233Z,92.20
2022-10-26T21:46:38.737Z,92.20
2022-10-26T21:49:06.630Z,92.20
2022-10-26T21:51:35.604Z,92.20
2022-10-26T21:54:03.954Z,92.20
2022-10-26T21:56:31.205Z,92.20
2022-10-26T21:59:01.851Z,92.20
2022-10-26T22:01:29.355Z,92.20
2022-10-26T22:03:56.970Z,92.20
2022-10-26T22:06:24.249Z,92.20
2022-10-26T22:08:51.595Z,92.20
2022-10-26T22:11:21.988Z,92.20
2022-10-26T22:13:50.574Z,92.20
2022-10-26T22:16:23.152Z,92.20
2022-10-26T22:18:52.277Z,92.20
2022-10-26T22:21:20.583Z,92.20
2022-10-26T22:23:48.174Z,92.20
2022-10-26T22:26:18.168Z,92.20
2022-10-26T22:28:47.093Z,92.20
2022-10-26T22:31:20.860Z,92.20
2022-10-26T22:33:56.104Z,92.20
2022-10-26T22:36:24.277Z,92.20
2022-10-26T22:38:51.671Z,92.20
2022-10-26T22:41:19.830Z,92.20
2022-10-26T22:43:47.788Z,92.20
2022-10-26T22:46:17.302Z,92.20
2022-10-26T22:48:47.850Z,92.20
2022-10-26T22:51:22.363Z,92.20
2022-10-26T22:53:54.557Z,92.20
2022-10-26T22:56:23.449Z,92.20
2022-10-26T22:58:52.249Z,92.20
2022-10-26T23:01:22.228Z,92.20
2022-10-26T23:03:49.602Z,92.20
2022-10-26T23:06:18.846Z,92.20
2022-10-26T23:08:46.106Z,92.20
2022-10-26T23:11:16.487Z,92.20
2022-10-26T23:13:44.224Z,92.20
2022-10-26T23:16:14.135Z,92.20
2022-10-26T23:18:41.502Z,92.20
2022-10-26T23:21:10.279Z,92.20
2022-10-26T23:23:38.325Z,92.20
2022-10-26T23:26:09.034Z,92.20
2022-10-26T23:28:37.210Z,92.20
2022-10-26T23:31:05.732Z,92.20
2022-10-26T23:33:33.724Z,92.20
2022-10-26T23:36:01.884Z,92.20
2022-10-26T23:38:29.348Z,92.20
2022-10-26T23:40:58.609Z,92.20
2022-10-26T23:43:28.083Z,92.20
2022-10-26T23:45:56.093Z,92.20
2022-10-26T23:48:23.788Z,92.20
2022-10-26T23:50:52.232Z,92.20
2022-10-26T23:53:22.486Z,92.20
2022-10-26T23:55:50.430Z,92.20
2022-10-26T23:58:18.392Z,92.20
